sensor_id;sensor_type;location;lat;lon;timestamp;temperature;humidity
58951;DHT22;44730;53.158;6.398;2022-08-21T00:01:28;14.40;99.90
58951;DHT22;44730;53.158;6.398;2022-08-21T00:03:55;14.40;99.90
58951;DHT22;44730;53.158;6.398;2022-08-21T00:06:22;14.40;99.90
58951;DHT22;44730;53.158;6.398;2022-08-21T00:08:50;14.30;99.90
58951;DHT22;44730;53.158;6.398;2022-08-21T00:11:16;14.30;99.90
58951;DHT22;44730;53.158;6.398;2022-08-21T00:13:42;14.20;99.90
58951;DHT22;44730;53.158;6.398;2022-08-21T00:16:08;14.20;99.90
58951;DHT22;44730;53.158;6.398;2022-08-21T00:18:36;14.20;99.90
58951;DHT22;44730;53.158;6.398;2022-08-21T00:21:02;14.10;99.90
58951;DHT22;44730;53.158;6.398;2022-08-21T00:23:29;14.10;99.90
58951;DHT22;44730;53.158;6.398;2022-08-21T00:25:54;14.10;99.90
58951;DHT22;44730;53.158;6.398;2022-08-21T00:28:20;14.00;99.90
58951;DHT22;44730;53.158;6.398;2022-08-21T00:30:46;14.00;99.90
58951;DHT22;44730;53.158;6.398;2022-08-21T00:33:12;14.00;99.90
58951;DHT22;44730;53.158;6.398;2022-08-21T00:35:40;13.90;99.90
58951;DHT22;44730;53.158;6.398;2022-08-21T00:38:08;13.90;99.90
58951;DHT22;44730;53.158;6.398;2022-08-21T00:40:38;13.90;99.90
58951;DHT22;44730;53.158;6.398;2022-08-21T00:43:07;13.90;99.90
58951;DHT22;44730;53.158;6.398;2022-08-21T00:45:34;13.90;99.90
58951;DHT22;44730;53.158;6.398;2022-08-21T00:48:00;13.80;99.90
58951;DHT22;44730;53.158;6.398;2022-08-21T00:50:29;13.80;99.90
58951;DHT22;44730;53.158;6.398;2022-08-21T00:52:56;13.80;99.90
58951;DHT22;44730;53.158;6.398;2022-08-21T00:55:23;13.80;99.90
58951;DHT22;44730;53.158;6.398;2022-08-21T00:57:52;13.80;99.90
58951;DHT22;44730;53.158;6.398;2022-08-21T01:00:26;13.70;99.90
58951;DHT22;44730;53.158;6.398;2022-08-21T01:02:57;13.80;99.90
58951;DHT22;44730;53.158;6.398;2022-08-21T01:05:24;13.80;99.90
58951;DHT22;44730;53.158;6.398;2022-08-21T01:07:50;13.80;99.90
58951;DHT22;44730;53.158;6.398;2022-08-21T01:10:16;13.80;99.90
58951;DHT22;44730;53.158;6.398;2022-08-21T01:12:43;13.80;99.90
58951;DHT22;44730;53.158;6.398;2022-08-21T01:15:09;13.80;99.90
58951;DHT22;44730;53.158;6.398;2022-08-21T01:17:36;13.90;99.90
58951;DHT22;44730;53.158;6.398;2022-08-21T01:20:05;13.80;99.90
58951;DHT22;44730;53.158;6.398;2022-08-21T01:22:32;13.90;99.90
58951;DHT22;44730;53.158;6.398;2022-08-21T01:24:58;13.90;99.90
58951;DHT22;44730;53.158;6.398;2022-08-21T01:27:24;13.90;99.90
58951;DHT22;44730;53.158;6.398;2022-08-21T01:30:04;13.90;99.90
58951;DHT22;44730;53.158;6.398;2022-08-21T01:32:33;13.90;99.90
58951;DHT22;44730;53.158;6.398;2022-08-21T01:34:59;13.90;99.90
58951;DHT22;44730;53.158;6.398;2022-08-21T01:37:25;13.80;99.90
58951;DHT22;44730;53.158;6.398;2022-08-21T01:39:51;13.80;99.90
58951;DHT22;44730;53.158;6.398;2022-08-21T01:42:17;13.80;99.90
58951;DHT22;44730;53.158;6.398;2022-08-21T01:44:43;13.80;99.90
58951;DHT22;44730;53.158;6.398;2022-08-21T01:47:11;13.80;99.90
58951;DHT22;44730;53.158;6.398;2022-08-21T01:49:38;13.80;99.90
58951;DHT22;44730;53.158;6.398;2022-08-21T01:52:04;13.80;99.90
58951;DHT22;44730;53.158;6.398;2022-08-21T01:54:30;13.80;99.90
58951;DHT22;44730;53.158;6.398;2022-08-21T01:56:56;13.70;99.90
58951;DHT22;44730;53.158;6.398;2022-08-21T01:59:23;13.70;99.90
58951;DHT22;44730;53.158;6.398;2022-08-21T02:01:49;13.70;99.90
58951;DHT22;44730;53.158;6.398;2022-08-21T02:04:16;13.70;99.90
58951;DHT22;44730;53.158;6.398;2022-08-21T02:06:41;13.70;99.90
58951;DHT22;44730;53.158;6.398;2022-08-21T02:09:09;13.60;99.90
58951;DHT22;44730;53.158;6.398;2022-08-21T02:11:35;13.60;99.90
58951;DHT22;44730;53.158;6.398;2022-08-21T02:14:02;13.60;99.90
58951;DHT22;44730;53.158;6.398;2022-08-21T02:16:27;13.60;99.90
58951;DHT22;44730;53.158;6.398;2022-08-21T02:18:53;13.60;99.90
58951;DHT22;44730;53.158;6.398;2022-08-21T02:21:19;13.60;99.90
58951;DHT22;44730;53.158;6.398;2022-08-21T02:23:45;13.60;99.90
58951;DHT22;44730;53.158;6.398;2022-08-21T02:26:13;13.60;99.90
58951;DHT22;44730;53.158;6.398;2022-08-21T02:28:39;13.60;99.90
58951;DHT22;44730;53.158;6.398;2022-08-21T02:31:06;13.60;99.90
58951;DHT22;44730;53.158;6.398;2022-08-21T02:33:32;13.60;99.90
58951;DHT22;44730;53.158;6.398;2022-08-21T02:35:58;13.60;99.90
58951;DHT22;44730;53.158;6.398;2022-08-21T02:38:27;13.60;99.90
58951;DHT22;44730;53.158;6.398;2022-08-21T02:40:54;13.60;99.90
58951;DHT22;44730;53.158;6.398;2022-08-21T02:43:22;13.60;99.90
58951;DHT22;44730;53.158;6.398;2022-08-21T02:45:49;13.60;99.90
58951;DHT22;44730;53.158;6.398;2022-08-21T02:48:18;13.60;99.90
58951;DHT22;44730;53.158;6.398;2022-08-21T02:50:52;13.60;99.90
58951;DHT22;44730;53.158;6.398;2022-08-21T02:53:18;13.60;99.90
58951;DHT22;44730;53.158;6.398;2022-08-21T02:55:47;13.60;99.90
58951;DHT22;44730;53.158;6.398;2022-08-21T02:58:14;13.60;99.90
58951;DHT22;44730;53.158;6.398;2022-08-21T03:00:43;13.60;99.90
58951;DHT22;44730;53.158;6.398;2022-08-21T03:03:09;13.60;99.90
58951;DHT22;44730;53.158;6.398;2022-08-21T03:05:35;13.60;99.90
58951;DHT22;44730;53.158;6.398;2022-08-21T03:08:05;13.60;99.90
58951;DHT22;44730;53.158;6.398;2022-08-21T03:10:36;13.60;99.90
58951;DHT22;44730;53.158;6.398;2022-08-21T03:13:02;13.60;99.90
58951;DHT22;44730;53.158;6.398;2022-08-21T03:15:28;13.60;99.90
58951;DHT22;44730;53.158;6.398;2022-08-21T03:17:54;13.60;99.90
58951;DHT22;44730;53.158;6.398;2022-08-21T03:20:22;13.60;99.90
58951;DHT22;44730;53.158;6.398;2022-08-21T03:22:50;13.60;99.90
58951;DHT22;44730;53.158;6.398;2022-08-21T03:25:16;13.70;99.90
58951;DHT22;44730;53.158;6.398;2022-08-21T03:27:43;13.70;99.90
58951;DHT22;44730;53.158;6.398;2022-08-21T03:30:10;13.60;99.90
58951;DHT22;44730;53.158;6.398;2022-08-21T03:32:37;13.70;99.90
58951;DHT22;44730;53.158;6.398;2022-08-21T03:35:03;13.70;99.90
58951;DHT22;44730;53.158;6.398;2022-08-21T03:37:29;13.70;99.90
58951;DHT22;44730;53.158;6.398;2022-08-21T03:39:55;13.70;99.90
58951;DHT22;44730;53.158;6.398;2022-08-21T03:42:22;13.70;99.90
58951;DHT22;44730;53.158;6.398;2022-08-21T03:44:48;13.70;99.90
58951;DHT22;44730;53.158;6.398;2022-08-21T03:47:14;13.70;99.90
58951;DHT22;44730;53.158;6.398;2022-08-21T03:49:39;13.70;99.90
58951;DHT22;44730;53.158;6.398;2022-08-21T03:52:05;13.70;99.90
58951;DHT22;44730;53.158;6.398;2022-08-21T03:54:31;13.70;99.90
58951;DHT22;44730;53.158;6.398;2022-08-21T03:56:57;13.70;99.90
58951;DHT22;44730;53.158;6.398;2022-08-21T03:59:23;13.70;99.90
58951;DHT22;44730;53.158;6.398;2022-08-21T04:01:59;13.70;99.90
58951;DHT22;44730;53.158;6.398;2022-08-21T04:04:26;13.70;99.90
58951;DHT22;44730;53.158;6.398;2022-08-21T04:06:52;13.70;99.90
58951;DHT22;44730;53.158;6.398;2022-08-21T04:09:19;13.70;99.90
58951;DHT22;44730;53.158;6.398;2022-08-21T04:11:45;13.60;99.90
58951;DHT22;44730;53.158;6.398;2022-08-21T04:14:14;13.70;99.90
58951;DHT22;44730;53.158;6.398;2022-08-21T04:16:40;13.60;99.90
58951;DHT22;44730;53.158;6.398;2022-08-21T04:19:08;13.70;99.90
58951;DHT22;44730;53.158;6.398;2022-08-21T04:21:35;13.70;99.90
58951;DHT22;44730;53.158;6.398;2022-08-21T04:24:01;13.70;99.90
58951;DHT22;44730;53.158;6.398;2022-08-21T04:26:28;13.70;99.90
58951;DHT22;44730;53.158;6.398;2022-08-21T04:28:54;13.60;99.90
58951;DHT22;44730;53.158;6.398;2022-08-21T04:31:23;13.70;99.90
58951;DHT22;44730;53.158;6.398;2022-08-21T04:33:50;13.70;99.90
58951;DHT22;44730;53.158;6.398;2022-08-21T04:36:16;13.70;99.90
58951;DHT22;44730;53.158;6.398;2022-08-21T04:38:42;13.70;99.90
58951;DHT22;44730;53.158;6.398;2022-08-21T04:41:08;13.70;99.90
58951;DHT22;44730;53.158;6.398;2022-08-21T04:43:34;13.70;99.90
58951;DHT22;44730;53.158;6.398;2022-08-21T04:45:59;13.80;99.90
58951;DHT22;44730;53.158;6.398;2022-08-21T04:48:26;13.60;99.90
58951;DHT22;44730;53.158;6.398;2022-08-21T04:50:56;13.80;99.90
58951;DHT22;44730;53.158;6.398;2022-08-21T04:53:33;13.80;99.90
58951;DHT22;44730;53.158;6.398;2022-08-21T04:56:05;13.80;99.90
58951;DHT22;44730;53.158;6.398;2022-08-21T04:58:36;13.80;99.90
58951;DHT22;44730;53.158;6.398;2022-08-21T05:01:04;13.90;99.90
58951;DHT22;44730;53.158;6.398;2022-08-21T05:03:33;13.90;99.90
58951;DHT22;44730;53.158;6.398;2022-08-21T05:06:00;13.90;99.90
58951;DHT22;44730;53.158;6.398;2022-08-21T05:08:27;14.00;99.90
58951;DHT22;44730;53.158;6.398;2022-08-21T05:10:54;14.00;99.90
58951;DHT22;44730;53.158;6.398;2022-08-21T05:13:20;14.00;99.90
58951;DHT22;44730;53.158;6.398;2022-08-21T05:15:46;14.10;99.90
58951;DHT22;44730;53.158;6.398;2022-08-21T05:18:12;14.20;99.90
58951;DHT22;44730;53.158;6.398;2022-08-21T05:20:38;14.20;99.90
58951;DHT22;44730;53.158;6.398;2022-08-21T05:23:10;14.40;99.90
58951;DHT22;44730;53.158;6.398;2022-08-21T05:25:37;14.50;99.90
58951;DHT22;44730;53.158;6.398;2022-08-21T05:28:03;14.70;99.90
58951;DHT22;44730;53.158;6.398;2022-08-21T05:30:29;14.80;99.90
58951;DHT22;44730;53.158;6.398;2022-08-21T05:33:00;15.00;99.90
58951;DHT22;44730;53.158;6.398;2022-08-21T05:35:28;15.10;99.90
58951;DHT22;44730;53.158;6.398;2022-08-21T05:37:55;15.30;99.90
58951;DHT22;44730;53.158;6.398;2022-08-21T05:40:22;15.40;99.90
58951;DHT22;44730;53.158;6.398;2022-08-21T05:42:50;15.50;99.90
58951;DHT22;44730;53.158;6.398;2022-08-21T05:45:16;15.60;99.90
58951;DHT22;44730;53.158;6.398;2022-08-21T05:47:42;15.80;99.90
58951;DHT22;44730;53.158;6.398;2022-08-21T05:50:09;15.90;99.90
58951;DHT22;44730;53.158;6.398;2022-08-21T05:52:35;16.10;99.90
58951;DHT22;44730;53.158;6.398;2022-08-21T05:55:00;16.30;99.90
58951;DHT22;44730;53.158;6.398;2022-08-21T05:57:28;16.50;99.90
58951;DHT22;44730;53.158;6.398;2022-08-21T05:59:53;16.70;99.90
58951;DHT22;44730;53.158;6.398;2022-08-21T06:02:20;16.90;99.90
58951;DHT22;44730;53.158;6.398;2022-08-21T06:04:46;17.10;99.90
58951;DHT22;44730;53.158;6.398;2022-08-21T06:07:12;17.30;99.90
58951;DHT22;44730;53.158;6.398;2022-08-21T06:09:38;17.60;99.90
58951;DHT22;44730;53.158;6.398;2022-08-21T06:12:06;17.90;99.90
58951;DHT22;44730;53.158;6.398;2022-08-21T06:14:32;18.20;99.90
58951;DHT22;44730;53.158;6.398;2022-08-21T06:17:05;18.50;99.90
58951;DHT22;44730;53.158;6.398;2022-08-21T06:19:31;18.80;99.90
58951;DHT22;44730;53.158;6.398;2022-08-21T06:21:57;19.10;99.90
58951;DHT22;44730;53.158;6.398;2022-08-21T06:24:23;19.40;99.90
58951;DHT22;44730;53.158;6.398;2022-08-21T06:26:49;19.60;99.90
58951;DHT22;44730;53.158;6.398;2022-08-21T06:29:15;19.70;99.90
58951;DHT22;44730;53.158;6.398;2022-08-21T06:31:43;19.90;99.90
58951;DHT22;44730;53.158;6.398;2022-08-21T06:34:09;20.10;99.90
58951;DHT22;44730;53.158;6.398;2022-08-21T06:36:35;20.20;99.90
58951;DHT22;44730;53.158;6.398;2022-08-21T06:39:01;20.30;99.90
58951;DHT22;44730;53.158;6.398;2022-08-21T06:41:28;20.40;99.90
58951;DHT22;44730;53.158;6.398;2022-08-21T06:43:54;20.50;99.90
58951;DHT22;44730;53.158;6.398;2022-08-21T06:46:21;20.70;99.90
58951;DHT22;44730;53.158;6.398;2022-08-21T06:48:47;20.80;99.90
58951;DHT22;44730;53.158;6.398;2022-08-21T06:51:13;21.00;99.90
58951;DHT22;44730;53.158;6.398;2022-08-21T06:53:39;21.10;99.90
58951;DHT22;44730;53.158;6.398;2022-08-21T06:56:05;21.20;99.90
58951;DHT22;44730;53.158;6.398;2022-08-21T06:58:30;21.20;99.90
58951;DHT22;44730;53.158;6.398;2022-08-21T07:00:56;21.20;99.90
58951;DHT22;44730;53.158;6.398;2022-08-21T07:03:42;21.40;99.90
58951;DHT22;44730;53.158;6.398;2022-08-21T07:06:09;21.50;99.90
58951;DHT22;44730;53.158;6.398;2022-08-21T07:08:36;21.70;99.90
58951;DHT22;44730;53.158;6.398;2022-08-21T07:11:07;21.90;99.90
58951;DHT22;44730;53.158;6.398;2022-08-21T07:13:34;22.10;99.90
58951;DHT22;44730;53.158;6.398;2022-08-21T07:16:01;22.20;99.90
58951;DHT22;44730;53.158;6.398;2022-08-21T07:18:27;22.40;99.90
58951;DHT22;44730;53.158;6.398;2022-08-21T07:20:54;22.60;99.90
58951;DHT22;44730;53.158;6.398;2022-08-21T07:23:28;22.90;99.90
58951;DHT22;44730;53.158;6.398;2022-08-21T07:25:55;23.00;99.90
58951;DHT22;44730;53.158;6.398;2022-08-21T07:28:21;23.10;99.90
58951;DHT22;44730;53.158;6.398;2022-08-21T07:30:51;23.10;99.90
58951;DHT22;44730;53.158;6.398;2022-08-21T07:33:17;23.20;99.90
58951;DHT22;44730;53.158;6.398;2022-08-21T07:35:43;23.20;99.90
58951;DHT22;44730;53.158;6.398;2022-08-21T07:38:09;23.20;99.90
58951;DHT22;44730;53.158;6.398;2022-08-21T07:40:35;23.20;99.90
58951;DHT22;44730;53.158;6.398;2022-08-21T07:43:01;23.30;99.90
58951;DHT22;44730;53.158;6.398;2022-08-21T07:45:28;23.40;99.90
58951;DHT22;44730;53.158;6.398;2022-08-21T07:47:53;23.60;99.90
58951;DHT22;44730;53.158;6.398;2022-08-21T07:50:20;23.70;99.90
58951;DHT22;44730;53.158;6.398;2022-08-21T07:52:46;23.80;99.90
58951;DHT22;44730;53.158;6.398;2022-08-21T07:55:15;24.00;99.90
58951;DHT22;44730;53.158;6.398;2022-08-21T07:57:41;24.10;99.90
58951;DHT22;44730;53.158;6.398;2022-08-21T08:00:11;24.20;99.90
58951;DHT22;44730;53.158;6.398;2022-08-21T08:02:37;24.50;99.90
58951;DHT22;44730;53.158;6.398;2022-08-21T08:05:05;24.70;99.90
58951;DHT22;44730;53.158;6.398;2022-08-21T08:07:31;24.60;99.90
58951;DHT22;44730;53.158;6.398;2022-08-21T08:09:57;24.70;99.90
58951;DHT22;44730;53.158;6.398;2022-08-21T08:12:24;24.90;99.90
58951;DHT22;44730;53.158;6.398;2022-08-21T08:14:59;25.00;99.90
58951;DHT22;44730;53.158;6.398;2022-08-21T08:17:27;25.30;99.90
58951;DHT22;44730;53.158;6.398;2022-08-21T08:19:53;25.50;99.90
58951;DHT22;44730;53.158;6.398;2022-08-21T08:22:22;25.60;99.90
58951;DHT22;44730;53.158;6.398;2022-08-21T08:24:51;25.70;99.90
58951;DHT22;44730;53.158;6.398;2022-08-21T08:27:18;25.70;99.90
58951;DHT22;44730;53.158;6.398;2022-08-21T08:29:44;25.80;99.90
58951;DHT22;44730;53.158;6.398;2022-08-21T08:32:11;25.80;99.90
58951;DHT22;44730;53.158;6.398;2022-08-21T08:34:38;26.00;99.90
58951;DHT22;44730;53.158;6.398;2022-08-21T08:37:05;25.90;99.90
58951;DHT22;44730;53.158;6.398;2022-08-21T08:39:32;25.80;99.90
58951;DHT22;44730;53.158;6.398;2022-08-21T08:42:11;25.70;99.90
58951;DHT22;44730;53.158;6.398;2022-08-21T08:44:43;25.50;99.90
58951;DHT22;44730;53.158;6.398;2022-08-21T08:47:16;25.10;99.90
58951;DHT22;44730;53.158;6.398;2022-08-21T08:50:03;24.90;99.90
58951;DHT22;44730;53.158;6.398;2022-08-21T08:52:39;25.00;99.90
58951;DHT22;44730;53.158;6.398;2022-08-21T08:55:15;25.30;99.90
58951;DHT22;44730;53.158;6.398;2022-08-21T08:57:45;25.40;99.90
58951;DHT22;44730;53.158;6.398;2022-08-21T09:00:14;25.70;99.90
58951;DHT22;44730;53.158;6.398;2022-08-21T09:02:42;26.10;99.90
58951;DHT22;44730;53.158;6.398;2022-08-21T09:05:20;26.50;99.90
58951;DHT22;44730;53.158;6.398;2022-08-21T09:10:28;26.90;99.90
58951;DHT22;44730;53.158;6.398;2022-08-21T09:13:06;26.80;99.90
58951;DHT22;44730;53.158;6.398;2022-08-21T09:24:02;27.10;99.90
58951;DHT22;44730;53.158;6.398;2022-08-21T09:26:52;27.60;99.90
58951;DHT22;44730;53.158;6.398;2022-08-21T09:29:24;27.60;99.90
58951;DHT22;44730;53.158;6.398;2022-08-21T09:31:50;27.40;99.90
58951;DHT22;44730;53.158;6.398;2022-08-21T09:34:27;27.50;99.90
58951;DHT22;44730;53.158;6.398;2022-08-21T09:36:53;27.80;99.90
58951;DHT22;44730;53.158;6.398;2022-08-21T09:39:27;28.00;99.90
58951;DHT22;44730;53.158;6.398;2022-08-21T09:41:59;28.10;99.90
58951;DHT22;44730;53.158;6.398;2022-08-21T09:44:28;27.80;99.90
58951;DHT22;44730;53.158;6.398;2022-08-21T09:46:54;27.40;99.90
58951;DHT22;44730;53.158;6.398;2022-08-21T09:49:34;27.30;99.90
58951;DHT22;44730;53.158;6.398;2022-08-21T09:52:02;27.60;99.90
58951;DHT22;44730;53.158;6.398;2022-08-21T09:54:35;27.80;99.90
58951;DHT22;44730;53.158;6.398;2022-08-21T09:59:53;27.60;99.90
58951;DHT22;44730;53.158;6.398;2022-08-21T10:02:31;27.90;99.90
58951;DHT22;44730;53.158;6.398;2022-08-21T10:05:02;28.10;99.70
58951;DHT22;44730;53.158;6.398;2022-08-21T10:07:31;28.10;98.00
58951;DHT22;44730;53.158;6.398;2022-08-21T10:10:12;28.10;98.20
58951;DHT22;44730;53.158;6.398;2022-08-21T10:12:47;27.80;98.40
58951;DHT22;44730;53.158;6.398;2022-08-21T10:18:11;28.10;98.30
58951;DHT22;44730;53.158;6.398;2022-08-21T10:21:02;27.90;97.40
58951;DHT22;44730;53.158;6.398;2022-08-21T10:30:19;26.80;98.00
58951;DHT22;44730;53.158;6.398;2022-08-21T10:35:26;25.80;99.90
58951;DHT22;44730;53.158;6.398;2022-08-21T10:41:32;25.20;99.90
58951;DHT22;44730;53.158;6.398;2022-08-21T10:47:04;25.10;99.90
58951;DHT22;44730;53.158;6.398;2022-08-21T10:59:01;25.10;99.90
58951;DHT22;44730;53.158;6.398;2022-08-21T11:01:42;25.00;99.90
58951;DHT22;44730;53.158;6.398;2022-08-21T11:04:19;24.90;99.90
58951;DHT22;44730;53.158;6.398;2022-08-21T11:06:53;24.80;99.90
58951;DHT22;44730;53.158;6.398;2022-08-21T11:09:25;24.70;99.90
58951;DHT22;44730;53.158;6.398;2022-08-21T11:17:11;25.20;99.90
58951;DHT22;44730;53.158;6.398;2022-08-21T11:20:43;26.10;99.90
58951;DHT22;44730;53.158;6.398;2022-08-21T11:23:07;26.40;99.90
58951;DHT22;44730;53.158;6.398;2022-08-21T11:25:36;26.30;99.90
58951;DHT22;44730;53.158;6.398;2022-08-21T11:28:22;26.90;99.90
58951;DHT22;44730;53.158;6.398;2022-08-21T11:31:17;27.20;99.90
58951;DHT22;44730;53.158;6.398;2022-08-21T11:36:44;26.70;99.90
58951;DHT22;44730;53.158;6.398;2022-08-21T11:39:22;26.40;99.90
58951;DHT22;44730;53.158;6.398;2022-08-21T11:42:10;26.00;99.90
58951;DHT22;44730;53.158;6.398;2022-08-21T11:48:13;25.50;99.90
58951;DHT22;44730;53.158;6.398;2022-08-21T11:50:29;25.20;99.90
58951;DHT22;44730;53.158;6.398;2022-08-21T11:55:49;25.00;99.90
58951;DHT22;44730;53.158;6.398;2022-08-21T11:58:39;25.10;99.90
58951;DHT22;44730;53.158;6.398;2022-08-21T12:01:10;25.00;99.90
58951;DHT22;44730;53.158;6.398;2022-08-21T12:03:41;24.90;99.90
58951;DHT22;44730;53.158;6.398;2022-08-21T12:06:13;24.80;99.90
58951;DHT22;44730;53.158;6.398;2022-08-21T12:08:44;24.80;99.90
58951;DHT22;44730;53.158;6.398;2022-08-21T12:16:33;25.00;99.90
58951;DHT22;44730;53.158;6.398;2022-08-21T12:21:54;24.80;99.90
58951;DHT22;44730;53.158;6.398;2022-08-21T12:26:53;26.00;99.90
58951;DHT22;44730;53.158;6.398;2022-08-21T12:29:23;26.30;99.90
58951;DHT22;44730;53.158;6.398;2022-08-21T12:32:25;26.80;99.60
58951;DHT22;44730;53.158;6.398;2022-08-21T12:34:57;26.90;99.80
58951;DHT22;44730;53.158;6.398;2022-08-21T12:37:45;27.70;98.00
58951;DHT22;44730;53.158;6.398;2022-08-21T12:40:43;27.80;94.90
58951;DHT22;44730;53.158;6.398;2022-08-21T12:45:58;28.70;91.50
58951;DHT22;44730;53.158;6.398;2022-08-21T12:51:13;28.50;88.50
58951;DHT22;44730;53.158;6.398;2022-08-21T12:53:47;28.00;90.40
58951;DHT22;44730;53.158;6.398;2022-08-21T12:56:18;27.50;90.00
58951;DHT22;44730;53.158;6.398;2022-08-21T12:58:47;27.10;89.90
58951;DHT22;44730;53.158;6.398;2022-08-21T13:01:29;26.80;91.50
58951;DHT22;44730;53.158;6.398;2022-08-21T13:03:58;26.70;91.90
58951;DHT22;44730;53.158;6.398;2022-08-21T13:06:25;26.70;91.30
58951;DHT22;44730;53.158;6.398;2022-08-21T13:08:57;26.50;92.40
58951;DHT22;44730;53.158;6.398;2022-08-21T13:11:25;26.20;92.30
58951;DHT22;44730;53.158;6.398;2022-08-21T13:13:54;26.20;92.90
58951;DHT22;44730;53.158;6.398;2022-08-21T13:16:24;26.10;93.10
58951;DHT22;44730;53.158;6.398;2022-08-21T13:21:28;25.60;93.70
58951;DHT22;44730;53.158;6.398;2022-08-21T13:23:54;25.50;93.50
58951;DHT22;44730;53.158;6.398;2022-08-21T13:26:21;25.40;93.50
58951;DHT22;44730;53.158;6.398;2022-08-21T13:28:48;25.30;94.00
58951;DHT22;44730;53.158;6.398;2022-08-21T13:31:27;25.20;94.70
58951;DHT22;44730;53.158;6.398;2022-08-21T13:33:55;25.00;95.00
58951;DHT22;44730;53.158;6.398;2022-08-21T13:36:26;25.10;94.70
58951;DHT22;44730;53.158;6.398;2022-08-21T13:38:54;25.00;95.90
58951;DHT22;44730;53.158;6.398;2022-08-21T13:41:23;25.30;95.60
58951;DHT22;44730;53.158;6.398;2022-08-21T13:44:01;25.40;95.20
58951;DHT22;44730;53.158;6.398;2022-08-21T13:46:30;25.20;96.20
58951;DHT22;44730;53.158;6.398;2022-08-21T13:48:59;25.20;96.10
58951;DHT22;44730;53.158;6.398;2022-08-21T13:51:25;25.40;95.20
58951;DHT22;44730;53.158;6.398;2022-08-21T13:53:52;25.90;95.40
58951;DHT22;44730;53.158;6.398;2022-08-21T13:58:59;27.70;93.90
58951;DHT22;44730;53.158;6.398;2022-08-21T14:02:08;28.40;90.40
58951;DHT22;44730;53.158;6.398;2022-08-21T14:04:57;29.00;88.60
58951;DHT22;44730;53.158;6.398;2022-08-21T14:07:38;29.90;84.70
58951;DHT22;44730;53.158;6.398;2022-08-21T14:10:12;29.80;83.20
58951;DHT22;44730;53.158;6.398;2022-08-21T14:12:43;30.20;82.00
58951;DHT22;44730;53.158;6.398;2022-08-21T14:15:14;30.20;79.90
58951;DHT22;44730;53.158;6.398;2022-08-21T14:17:41;29.60;81.60
58951;DHT22;44730;53.158;6.398;2022-08-21T14:20:11;29.10;81.90
58951;DHT22;44730;53.158;6.398;2022-08-21T14:25:30;28.80;80.90
58951;DHT22;44730;53.158;6.398;2022-08-21T14:30:29;29.80;79.20
58951;DHT22;44730;53.158;6.398;2022-08-21T14:32:55;30.40;77.80
58951;DHT22;44730;53.158;6.398;2022-08-21T14:35:21;31.00;75.10
58951;DHT22;44730;53.158;6.398;2022-08-21T14:37:48;31.40;71.40
58951;DHT22;44730;53.158;6.398;2022-08-21T14:40:16;31.90;70.00
58951;DHT22;44730;53.158;6.398;2022-08-21T14:42:43;32.30;67.50
58951;DHT22;44730;53.158;6.398;2022-08-21T14:45:29;32.70;67.00
58951;DHT22;44730;53.158;6.398;2022-08-21T14:47:56;33.40;64.10
58951;DHT22;44730;53.158;6.398;2022-08-21T14:50:23;33.90;63.90
58951;DHT22;44730;53.158;6.398;2022-08-21T14:52:49;34.40;61.40
58951;DHT22;44730;53.158;6.398;2022-08-21T14:55:16;34.30;60.20
58951;DHT22;44730;53.158;6.398;2022-08-21T14:57:45;34.20;58.40
58951;DHT22;44730;53.158;6.398;2022-08-21T15:00:15;34.40;57.70
58951;DHT22;44730;53.158;6.398;2022-08-21T15:02:42;34.40;57.10
58951;DHT22;44730;53.158;6.398;2022-08-21T15:05:09;34.80;56.60
58951;DHT22;44730;53.158;6.398;2022-08-21T15:07:35;34.90;55.70
58951;DHT22;44730;53.158;6.398;2022-08-21T15:10:00;34.50;53.80
58951;DHT22;44730;53.158;6.398;2022-08-21T15:12:27;33.60;54.90
58951;DHT22;44730;53.158;6.398;2022-08-21T15:14:53;32.60;56.70
58951;DHT22;44730;53.158;6.398;2022-08-21T15:17:25;31.80;58.40
58951;DHT22;44730;53.158;6.398;2022-08-21T15:19:51;31.60;58.60
58951;DHT22;44730;53.158;6.398;2022-08-21T15:22:17;31.30;59.20
58951;DHT22;44730;53.158;6.398;2022-08-21T15:24:43;31.20;60.30
58951;DHT22;44730;53.158;6.398;2022-08-21T15:27:10;31.50;59.70
58951;DHT22;44730;53.158;6.398;2022-08-21T15:29:37;31.50;59.40
58951;DHT22;44730;53.158;6.398;2022-08-21T15:32:20;31.20;58.90
58951;DHT22;44730;53.158;6.398;2022-08-21T15:34:48;31.30;58.50
58951;DHT22;44730;53.158;6.398;2022-08-21T15:37:14;31.50;58.20
58951;DHT22;44730;53.158;6.398;2022-08-21T15:39:39;31.70;58.60
58951;DHT22;44730;53.158;6.398;2022-08-21T15:42:05;31.70;59.10
58951;DHT22;44730;53.158;6.398;2022-08-21T15:44:31;31.50;59.40
58951;DHT22;44730;53.158;6.398;2022-08-21T15:46:59;31.30;59.60
58951;DHT22;44730;53.158;6.398;2022-08-21T15:49:24;31.00;60.10
58951;DHT22;44730;53.158;6.398;2022-08-21T15:51:50;31.00;60.90
58951;DHT22;44730;53.158;6.398;2022-08-21T15:54:16;30.90;60.20
58951;DHT22;44730;53.158;6.398;2022-08-21T15:56:44;30.80;60.40
58951;DHT22;44730;53.158;6.398;2022-08-21T15:59:19;30.70;60.00
58951;DHT22;44730;53.158;6.398;2022-08-21T16:01:51;30.40;61.30
58951;DHT22;44730;53.158;6.398;2022-08-21T16:04:25;29.90;62.50
58951;DHT22;44730;53.158;6.398;2022-08-21T16:06:52;29.40;63.30
58951;DHT22;44730;53.158;6.398;2022-08-21T16:09:18;29.10;63.50
58951;DHT22;44730;53.158;6.398;2022-08-21T16:11:44;28.70;64.30
58951;DHT22;44730;53.158;6.398;2022-08-21T16:14:12;28.50;64.90
58951;DHT22;44730;53.158;6.398;2022-08-21T16:16:38;28.30;65.40
58951;DHT22;44730;53.158;6.398;2022-08-21T16:19:04;28.20;65.90
58951;DHT22;44730;53.158;6.398;2022-08-21T16:21:32;27.80;66.70
58951;DHT22;44730;53.158;6.398;2022-08-21T16:23:58;27.60;67.30
58951;DHT22;44730;53.158;6.398;2022-08-21T16:26:23;27.40;68.30
58951;DHT22;44730;53.158;6.398;2022-08-21T16:28:52;27.00;68.80
58951;DHT22;44730;53.158;6.398;2022-08-21T16:31:19;26.70;69.50
58951;DHT22;44730;53.158;6.398;2022-08-21T16:33:50;26.40;70.10
58951;DHT22;44730;53.158;6.398;2022-08-21T16:36:16;26.20;71.20
58951;DHT22;44730;53.158;6.398;2022-08-21T16:38:43;26.10;71.70
58951;DHT22;44730;53.158;6.398;2022-08-21T16:41:11;25.80;73.30
58951;DHT22;44730;53.158;6.398;2022-08-21T16:43:38;25.60;73.60
58951;DHT22;44730;53.158;6.398;2022-08-21T16:46:06;25.40;74.50
58951;DHT22;44730;53.158;6.398;2022-08-21T16:48:34;25.30;74.90
58951;DHT22;44730;53.158;6.398;2022-08-21T16:51:00;25.20;75.90
58951;DHT22;44730;53.158;6.398;2022-08-21T16:53:25;25.00;77.40
58951;DHT22;44730;53.158;6.398;2022-08-21T16:55:52;24.90;77.90
58951;DHT22;44730;53.158;6.398;2022-08-21T16:58:31;24.80;78.60
58951;DHT22;44730;53.158;6.398;2022-08-21T17:01:04;24.70;79.00
58951;DHT22;44730;53.158;6.398;2022-08-21T17:03:34;24.60;79.60
58951;DHT22;44730;53.158;6.398;2022-08-21T17:06:01;24.50;80.40